Observation data for Hart on 02/14/2017      Previous  Date       Current Mesonet Observations  Soil Data  Daily Summary Page  Observations in Plain Language
KHRS 140600Z 34011KT 02/01 A3002 RMK A01 T00210009  RH  093%=      5-min Rain = 0
KHRS 140605Z 34011KT 02/01 A3002 RMK A01 T00210009  RH  093%=      5-min Rain = 0
KHRS 140610Z 35011KT 02/01 A3002 RMK A01 T00210009  RH  093%=      5-min Rain = 0
KHRS 140615Z 35010KT 02/01 A3003 RMK A01 T00210009  RH  093%=      5-min Rain = 0
KHRS 140620Z 35012KT 02/01 A3003 RMK A01 T00210009  RH  093%=      5-min Rain = 0
KHRS 140625Z 35011KT 02/01 A3003 RMK A01 T00210009  RH  092%=      5-min Rain = 0
KHRS 140630Z 35010KT 02/01 A3003 RMK A01 T00210009  RH  092%=      5-min Rain = 0
KHRS 140635Z 35008KT 02/01 A3004 RMK A01 T00220009  RH  093%=      5-min Rain = 0
KHRS 140640Z 36008KT 02/01 A3004 RMK A01 T00220009  RH  093%=      5-min Rain = 0
KHRS 140645Z 36007KT 02/01 A3004 RMK A01 T00220010  RH  093%=      5-min Rain = 0
KHRS 140650Z 35008KT 02/01 A3004 RMK A01 T00220010  RH  093%=      5-min Rain = 0
KHRS 140655Z 34009KT 02/01 A3004 RMK A01 T00220011  RH  094%=      5-min Rain = 0
KHRS 140700Z 35010KT 02/01 A3004 RMK A01 T00220011  RH  094%=      5-min Rain = 0
KHRS 140705Z 35010KT 02/01 A3003 RMK A01 T00220011  RH  094%=      5-min Rain = 0
KHRS 140710Z 35010KT 02/01 A3004 RMK A01 T00220011  RH  094%=      5-min Rain = 0
KHRS 140715Z 35009KT 02/01 A3004 RMK A01 T00220012  RH  094%=      5-min Rain = 0
KHRS 140720Z 34011KT 02/01 A3004 RMK A01 T00220012  RH  094%=      5-min Rain = 0
KHRS 140725Z 35011KT 02/01 A3004 RMK A01 T00220012  RH  094%=      5-min Rain = 0
KHRS 140730Z 34010KT 02/01 A3004 RMK A01 T00230012  RH  094%=      5-min Rain = 0
KHRS 140735Z 34009KT 02/01 A3004 RMK A01 T00230013  RH  094%=      5-min Rain = 0
KHRS 140740Z 34011KT 02/01 A3004 RMK A01 T00230013  RH  094%=      5-min Rain = 0
KHRS 140745Z 35010KT 02/01 A3004 RMK A01 T00230013  RH  094%=      5-min Rain = 0
KHRS 140750Z 35010KT 02/01 A3004 RMK A01 T00230013  RH  094%=      5-min Rain = 0
KHRS 140755Z 35009KT 02/01 A3005 RMK A01 T00230012  RH  094%=      5-min Rain = 0
KHRS 140800Z 35008KT 02/01 A3005 RMK A01 T00230012  RH  093%=      5-min Rain = 0
KHRS 140805Z 35009KT 02/01 A3005 RMK A01 T00230011  RH  093%=      5-min Rain = 0
KHRS 140810Z 35009KT 02/01 A3005 RMK A01 T00230010  RH  092%=      5-min Rain = 0
KHRS 140815Z 35010KT 02/01 A3005 RMK A01 T00230010  RH  092%=      5-min Rain = 0
KHRS 140820Z 35009KT 02/01 A3005 RMK A01 T00230009  RH  092%=      5-min Rain = 0
KHRS 140825Z 35010KT 02/01 A3004 RMK A01 T00230009  RH  092%=      5-min Rain = 0
KHRS 140830Z 35010KT 02/01 A3004 RMK A01 T00230009  RH  092%=      5-min Rain = 0
KHRS 140835Z 35010KT 02/01 A3004 RMK A01 T00230010  RH  092%=      5-min Rain = 0
KHRS 140840Z 35009KT 02/01 A3004 RMK A01 T00230010  RH  092%=      5-min Rain = 0
KHRS 140845Z 35008KT 02/01 A3004 RMK A01 T00230011  RH  093%=      5-min Rain = 0
KHRS 140850Z 34009KT 02/01 A3004 RMK A01 T00230011  RH  093%=      5-min Rain = 0
KHRS 140855Z 34009KT 02/01 A3004 RMK A01 T00230011  RH  093%=      5-min Rain = 0
KHRS 140900Z 34010KT 02/01 A3004 RMK A01 T00230011  RH  093%=      5-min Rain = 0
KHRS 140905Z 34010KT 02/01 A3004 RMK A01 T00230011  RH  093%=      5-min Rain = 0
KHRS 140910Z 34010KT 02/01 A3003 RMK A01 T00230012  RH  093%=      5-min Rain = 0
KHRS 140915Z 34010KT 02/01 A3003 RMK A01 T00230012  RH  094%=      5-min Rain = 0
KHRS 140920Z 34010KT 02/01 A3003 RMK A01 T00230013  RH  094%=      5-min Rain = 0
KHRS 140925Z 34009KT 02/01 A3002 RMK A01 T00240013  RH  094%=      5-min Rain = 0
KHRS 140930Z 34010KT 02/01 A3002 RMK A01 T00240013  RH  094%=      5-min Rain = 0
KHRS 140935Z 34009KT 02/01 A3003 RMK A01 T00240013  RH  094%=      5-min Rain = 0
KHRS 140940Z 34009KT 02/01 A3003 RMK A01 T00240013  RH  094%=      5-min Rain = 0
KHRS 140945Z 34009KT 02/01 A3003 RMK A01 T00240013  RH  093%=      5-min Rain = 0
KHRS 140950Z 34010KT 02/01 A3003 RMK A01 T00240013  RH  093%=      5-min Rain = 0
KHRS 140955Z 34010KT 02/01 A3003 RMK A01 T00240013  RH  093%=      5-min Rain = 0
KHRS 141000Z 34010KT 03/01 A3003 RMK A01 T00250013  RH  093%=      5-min Rain = 0
KHRS 141005Z 34010KT 03/01 A3003 RMK A01 T00250013  RH  093%=      5-min Rain = 0
KHRS 141010Z 34010KT 02/01 A3002 RMK A01 T00240013  RH  093%=      5-min Rain = 0
KHRS 141015Z 34011KT 02/01 A3002 RMK A01 T00240013  RH  093%=      5-min Rain = 0
KHRS 141020Z 34013KT 02/01 A3002 RMK A01 T00240012  RH  093%=      5-min Rain = 0
KHRS 141025Z 34011KT 02/01 A3002 RMK A01 T00240012  RH  093%=      5-min Rain = 0
KHRS 141030Z 34013KT 02/01 A3002 RMK A01 T00240012  RH  093%=      5-min Rain = 0
KHRS 141035Z 34012KT 02/01 A3002 RMK A01 T00240013  RH  093%=      5-min Rain = 0
KHRS 141040Z 34011KT 02/01 A3002 RMK A01 T00240013  RH  093%=      5-min Rain = 0
KHRS 141045Z 35011KT 02/01 A3002 RMK A01 T00230013  RH  094%=      5-min Rain = 0
KHRS 141050Z 35011KT 02/01 A3003 RMK A01 T00230013  RH  094%=      5-min Rain = 0
KHRS 141055Z 35011KT 02/01 A3003 RMK A01 T00230013  RH  094%=      5-min Rain = 0
KHRS 141100Z 35013KT 02/01 A3003 RMK A01 T00220012  RH  095%=      5-min Rain = 0
KHRS 141105Z 35013KT 02/01 A3003 RMK A01 T00210012  RH  095%=      5-min Rain = 0
KHRS 141110Z 35012KT 02/01 A3003 RMK A01 T00200012  RH  095%=      5-min Rain = 0
KHRS 141115Z 35012KT 02/01 A3003 RMK A01 T00190011  RH  096%=      5-min Rain = 0
KHRS 141120Z 35012KT 02/01 A3003 RMK A01 T00170009  RH  096%=      5-min Rain = 0
KHRS 141125Z 34013KT 01/01 A3003 RMK A01 T00130006  RH  096%=      5-min Rain = 0.01
KHRS 141130Z 34012KT 01/00 A3003 RMK A01 T00100004  RH  097%=      5-min Rain = 0
KHRS 141135Z 34012KT 01/00 A3003 RMK A01 T00080002  RH  097%=      5-min Rain = 0.01
KHRS 141140Z 34012KT 01/00 A3003 RMK A01 T00060001  RH  097%=      5-min Rain = 0
KHRS 141145Z 35012KT 01/00 A3003 RMK A01 T00050000  RH  098%=      5-min Rain = 0.01
KHRS 141150Z 35013KT 00/00 A3003 RMK A01 T000400-0  RH  098%=      5-min Rain = 0
KHRS 141155Z 35013KT 00/M00 A3003 RMK A01 T00031001  RH  098%=      5-min Rain = 0
KHRS 141200Z 35013KT 00/M00 A3002 RMK A01 T00021001  RH  099%=      5-min Rain = 0
KHRS 141205Z 34013KT 00/M00 A3002 RMK A01 T00021002  RH  099%=      5-min Rain = 0
KHRS 141210Z 34013KT 00/M00 A3002 RMK A01 T00011002  RH  099%=      5-min Rain = 0
KHRS 141215Z 34013KT 00/M00 A3002 RMK A01 T00011002  RH  099%=      5-min Rain = 0.01
KHRS 141220Z 34012KT 00/M00 A3002 RMK A01 T00011002  RH  099%=      5-min Rain = 0
KHRS 141225Z 35013KT 00/00 A3002 RMK A01 T000000-2  RH  099%=      5-min Rain = 0
KHRS 141230Z 35014KT 00/00 A3002 RMK A01 T000000-2  RH  099%=      5-min Rain = 0
KHRS 141235Z 35013KT 00/00 A3002 RMK A01 T000000-2  RH  099%=      5-min Rain = 0
KHRS 141240Z 35012KT 00/00 A3003 RMK A01 T00-000-2  RH  100%=      5-min Rain = 0.02
KHRS 141245Z 34012KT 00/00 A3003 RMK A01 T00-000-2  RH  100%=      5-min Rain = 0
KHRS 141250Z 34012KT 00/00 A3003 RMK A01 T00-000-2  RH  100%=      5-min Rain = 0
KHRS 141255Z 34013KT 00/00 A3003 RMK A01 T00-000-2  RH  100%=      5-min Rain = 0
KHRS 141300Z 34012KT 00/00 A3003 RMK A01 T00-000-2  RH  100%=      5-min Rain = 0
KHRS 141305Z 34012KT 00/00 A3004 RMK A01 T00-000-2  RH  100%=      5-min Rain = 0
KHRS 141310Z 34012KT 00/00 A3004 RMK A01 T00-000-2  RH  100%=      5-min Rain = 0
KHRS 141315Z 34012KT 00/00 A3004 RMK A01 T00-000-2  RH  100%=      5-min Rain = 0
KHRS 141320Z 34012KT 00/00 A3004 RMK A01 T000000-1  RH  100%=      5-min Rain = 0
KHRS 141325Z 34012KT 00/00 A3005 RMK A01 T000000-1  RH  100%=      5-min Rain = 0.01
KHRS 141330Z 34011KT 00/00 A3005 RMK A01 T000000-1  RH  100%=      5-min Rain = 0
KHRS 141335Z 34012KT 00/00 A3005 RMK A01 T000000-1  RH  100%=      5-min Rain = 0
KHRS 141340Z 34011KT 00/00 A3005 RMK A01 T000000-1  RH  100%=      5-min Rain = 0
KHRS 141345Z 34011KT 00/00 A3005 RMK A01 T000000-1  RH  100%=      5-min Rain = 0
KHRS 141350Z 34012KT 00/M00 A3005 RMK A01 T00011001  RH  100%=      5-min Rain = 0
KHRS 141355Z 34012KT 00/M00 A3006 RMK A01 T00011001  RH  100%=      5-min Rain = 0
KHRS 141400Z 34013KT 00/M00 A3006 RMK A01 T00011001  RH  100%=      5-min Rain = 0
KHRS 141405Z 34013KT 00/M00 A3006 RMK A01 T00011001  RH  100%=      5-min Rain = 0
KHRS 141410Z 34015G21KT 00/M00 A3006 RMK A01 T00011001  RH  100%=      5-min Rain = 0.01
KHRS 141415Z 34015KT 00/M00 A3006 RMK A01 T00011001  RH  100%=      5-min Rain = 0
KHRS 141420Z 34015KT 00/M00 A3007 RMK A01 T00011001  RH  100%=      5-min Rain = 0
KHRS 141425Z 34015G20KT 00/M00 A3007 RMK A01 T00011001  RH  100%=      5-min Rain = 0
KHRS 141430Z 34016G21KT 00/00 A3007 RMK A01 T000100-0  RH  100%=      5-min Rain = 0
KHRS 141435Z 34015G25KT 00/00 A3007 RMK A01 T000100-0  RH  100%=      5-min Rain = 0
KHRS 141440Z 35018G23KT 00/00 A3007 RMK A01 T000100-0  RH  100%=      5-min Rain = 0.01
KHRS 141445Z 35017G22KT 00/M00 A3007 RMK A01 T00011001  RH  100%=      5-min Rain = 0
KHRS 141450Z 35019G24KT 00/M00 A3007 RMK A01 T00011001  RH  100%=      5-min Rain = 0
KHRS 141455Z 35020G27KT 00/M00 A3008 RMK A01 T00011001  RH  100%=      5-min Rain = 0.01
KHRS 141500Z 36025G33KT 00/00 A3007 RMK A01 T000100-0  RH  100%=      5-min Rain = 0
KHRS 141505Z 35026G31KT 00/00 A3007 RMK A01 T000200-0  RH  100%=      5-min Rain = 0.01
KHRS 141510Z 36024G30KT 00/00 A3008 RMK A01 T00020000  RH  100%=      5-min Rain = 0
KHRS 141515Z 35025G30KT 00/00 A3008 RMK A01 T00020001  RH  100%=      5-min Rain = 0
KHRS 141520Z 36027G35KT 00/00 A3008 RMK A01 T00030001  RH  100%=      5-min Rain = 0.01
KHRS 141525Z 36025KT 00/00 A3008 RMK A01 T00030002  RH  100%=      5-min Rain = 0.01
KHRS 141530Z 35024G31KT 00/00 A3009 RMK A01 T00040002  RH  100%=      5-min Rain = 0
KHRS 141535Z 36023G28KT 00/00 A3009 RMK A01 T00040003  RH  100%=      5-min Rain = 0.01
KHRS 141540Z 36024G29KT 01/00 A3009 RMK A01 T00050003  RH  100%=      5-min Rain = 0
KHRS 141545Z 36027KT 01/00 A3009 RMK A01 T00050003  RH  100%=      5-min Rain = 0.01
KHRS 141550Z 36026G32KT 01/00 A3009 RMK A01 T00060004  RH  100%=      5-min Rain = 0.01
KHRS 141555Z 36026G33KT 01/00 A3009 RMK A01 T00070004  RH  099%=      5-min Rain = 0.01
KHRS 141600Z 36026G32KT 01/00 A3009 RMK A01 T00070003  RH  098%=      5-min Rain = 0
KHRS 141605Z 36027G34KT 01/00 A3009 RMK A01 T00080003  RH  098%=      5-min Rain = 0.01
KHRS 141610Z 35024G32KT 01/00 A301 RMK A01 T00090004  RH  097%=      5-min Rain = 0.01
KHRS 141615Z 35022G30KT 01/00 A301 RMK A01 T00100004  RH  097%=      5-min Rain = 0.01
KHRS 141620Z 35027G32KT 01/00 A301 RMK A01 T00090003  RH  097%=      5-min Rain = 0.01
KHRS 141625Z 35025G33KT 01/00 A301 RMK A01 T00080003  RH  097%=      5-min Rain = 0
KHRS 141630Z 35023G30KT 01/00 A301 RMK A01 T00090003  RH  097%=      5-min Rain = 0.01
KHRS 141635Z 35024G31KT 01/00 A3011 RMK A01 T00090003  RH  097%=      5-min Rain = 0
KHRS 141640Z 35023KT 01/00 A3011 RMK A01 T00090002  RH  097%=      5-min Rain = 0.01
KHRS 141645Z 35021G27KT 01/00 A3011 RMK A01 T00100003  RH  096%=      5-min Rain = 0
KHRS 141650Z 35022G29KT 01/00 A3011 RMK A01 T00100003  RH  096%=      5-min Rain = 0
KHRS 141655Z 35020G25KT 01/00 A3011 RMK A01 T00110004  RH  096%=      5-min Rain = 0
KHRS 141700Z 35022G28KT 01/00 A3011 RMK A01 T00110004  RH  096%=      5-min Rain = 0
KHRS 141705Z 35020G26KT 01/00 A3011 RMK A01 T00120004  RH  096%=      5-min Rain = 0
KHRS 141710Z 35021G28KT 01/01 A3011 RMK A01 T00140005  RH  095%=      5-min Rain = 0
KHRS 141715Z 36025G32KT 02/01 A3011 RMK A01 T00150005  RH  094%=      5-min Rain = 0
KHRS 141720Z 36028G36KT 02/00 A3011 RMK A01 T00160004  RH  093%=      5-min Rain = 0
KHRS 141725Z 36029G37KT 02/00 A3012 RMK A01 T00160003  RH  092%=      5-min Rain = 0
KHRS 141730Z 35026G33KT 02/01 A3012 RMK A01 T00190007  RH  092%=      5-min Rain = 0
KHRS 141735Z 35025G32KT 02/01 A3012 RMK A01 T00210008  RH  092%=      5-min Rain = 0
KHRS 141740Z 35024G33KT 02/01 A3012 RMK A01 T00200005  RH  091%=      5-min Rain = 0
KHRS 141745Z 35024G32KT 02/00 A3012 RMK A01 T00190004  RH  090%=      5-min Rain = 0
KHRS 141750Z 35023G31KT 02/00 A3012 RMK A01 T00190003  RH  091%=      5-min Rain = 0
KHRS 141755Z 35026G32KT 02/00 A3012 RMK A01 T00160001  RH  090%=      5-min Rain = 0
KHRS 141800Z 35026G31KT 02/M00 A3012 RMK A01 T00151001  RH  091%=      5-min Rain = 0
KHRS 141805Z 34023G30KT 02/00 A3012 RMK A01 T00150002  RH  092%=      5-min Rain = 0
KHRS 141810Z 34025G31KT 02/00 A3011 RMK A01 T00160002  RH  092%=      5-min Rain = 0
KHRS 141815Z 35023G29KT 02/00 A3012 RMK A01 T00160004  RH  092%=      5-min Rain = 0
KHRS 141820Z 34024G30KT 02/00 A3012 RMK A01 T00170004  RH  092%=      5-min Rain = 0
KHRS 141825Z 34026G33KT 02/00 A3012 RMK A01 T00160003  RH  092%=      5-min Rain = 0
KHRS 141830Z 35025G33KT 02/00 A3012 RMK A01 T00160004  RH  093%=      5-min Rain = 0
KHRS 141835Z 35024G30KT 02/01 A3012 RMK A01 T00170006  RH  093%=      5-min Rain = 0
KHRS 141840Z 35024G30KT 02/01 A3012 RMK A01 T00180006  RH  093%=      5-min Rain = 0
KHRS 141845Z 35021G27KT 02/01 A3012 RMK A01 T00180007  RH  094%=      5-min Rain = 0
KHRS 141850Z 35024G32KT 02/00 A3011 RMK A01 T00160004  RH  093%=      5-min Rain = 0
KHRS 141855Z 35023G29KT 01/00 A3011 RMK A01 T00140003  RH  093%=      5-min Rain = 0
KHRS 141900Z 35023KT 01/00 A3012 RMK A01 T00140004  RH  094%=      5-min Rain = 0
KHRS 141905Z 35021G27KT 01/00 A3012 RMK A01 T00120003  RH  095%=      5-min Rain = 0
KHRS 141910Z 35023G28KT 01/00 A3012 RMK A01 T00100002  RH  095%=      5-min Rain = 0
KHRS 141915Z 35022G31KT 01/00 A3012 RMK A01 T00100003  RH  096%=      5-min Rain = 0
KHRS 141920Z 35019G24KT 01/01 A3012 RMK A01 T00130006  RH  096%=      5-min Rain = 0
KHRS 141925Z 35020G25KT 01/01 A3012 RMK A01 T00120005  RH  096%=      5-min Rain = 0
KHRS 141930Z 35021G26KT 01/00 A3012 RMK A01 T00110004  RH  096%=      5-min Rain = 0
KHRS 141935Z 35019G27KT 01/01 A3012 RMK A01 T00120006  RH  097%=      5-min Rain = 0
KHRS 141940Z 35019KT 01/01 A3012 RMK A01 T00140007  RH  096%=      5-min Rain = 0
KHRS 141945Z 34018G24KT 02/01 A3011 RMK A01 T00160008  RH  096%=      5-min Rain = 0
KHRS 141950Z 34018KT 02/01 A3011 RMK A01 T00150007  RH  096%=      5-min Rain = 0
KHRS 141955Z 35019G24KT 01/01 A3011 RMK A01 T00140005  RH  094%=      5-min Rain = 0
KHRS 142000Z 34019G24KT 02/00 A3011 RMK A01 T00150004  RH  094%=      5-min Rain = 0
KHRS 142005Z 35021G27KT 02/00 A3011 RMK A01 T00150001  RH  092%=      5-min Rain = 0
KHRS 142010Z 35019G25KT 02/00 A3011 RMK A01 T001700-0  RH  090%=      5-min Rain = 0
KHRS 142015Z 36021KT 02/M00 A3011 RMK A01 T00161001  RH  089%=      5-min Rain = 0
KHRS 142020Z 36021G28KT 02/00 A3011 RMK A01 T001700-0  RH  089%=      5-min Rain = 0
KHRS 142025Z 36023G28KT 02/M01 A3011 RMK A01 T00151006  RH  087%=      5-min Rain = 0
KHRS 142030Z 00020G25KT 01/M00 A3011 RMK A01 T00131004  RH  089%=      5-min Rain = 0
KHRS 142035Z 36022KT 01/M00 A3011 RMK A01 T00101004  RH  091%=      5-min Rain = 0
KHRS 142040Z 36022G27KT 01/M00 A3011 RMK A01 T00101002  RH  093%=      5-min Rain = 0
KHRS 142045Z 36018G23KT 01/00 A3012 RMK A01 T00110001  RH  094%=      5-min Rain = 0
KHRS 142050Z 36021G27KT 01/00 A3012 RMK A01 T00100002  RH  095%=      5-min Rain = 0
KHRS 142055Z 36021G26KT 01/00 A3012 RMK A01 T00100001  RH  095%=      5-min Rain = 0
KHRS 142100Z 36020KT 01/00 A3012 RMK A01 T00110003  RH  095%=      5-min Rain = 0
KHRS 142105Z 00018G24KT 01/00 A3012 RMK A01 T00120004  RH  095%=      5-min Rain = 0
KHRS 142110Z 01021KT 01/00 A3012 RMK A01 T00120003  RH  095%=      5-min Rain = 0
KHRS 142115Z 00022G28KT 01/00 A3012 RMK A01 T00120000  RH  093%=      5-min Rain = 0
KHRS 142120Z 00019G24KT 01/M00 A3012 RMK A01 T00121001  RH  092%=      5-min Rain = 0
KHRS 142125Z 00022G27KT 01/M00 A3012 RMK A01 T00131002  RH  091%=      5-min Rain = 0
KHRS 142130Z 00021KT 01/M00 A3012 RMK A01 T00141003  RH  089%=      5-min Rain = 0
KHRS 142135Z 01020G27KT 02/M01 A3012 RMK A01 T00151005  RH  088%=      5-min Rain = 0
KHRS 142140Z 01019G25KT 02/M01 A3012 RMK A01 T00161005  RH  087%=      5-min Rain = 0
KHRS 142145Z 01019G24KT 02/M01 A3012 RMK A01 T00161005  RH  087%=      5-min Rain = 0
KHRS 142150Z 00020G26KT 02/M01 A3012 RMK A01 T00161005  RH  087%=      5-min Rain = 0
KHRS 142155Z 00020KT 02/M01 A3012 RMK A01 T00171006  RH  086%=      5-min Rain = 0
KHRS 142200Z 36018KT 02/M00 A3012 RMK A01 T00181004  RH  086%=      5-min Rain = 0
KHRS 142205Z 36017G23KT 02/M00 A3012 RMK A01 T00191003  RH  086%=      5-min Rain = 0
KHRS 142210Z 01018KT 02/M00 A3012 RMK A01 T00191004  RH  086%=      5-min Rain = 0
KHRS 142215Z 36017KT 02/M00 A3012 RMK A01 T00191003  RH  087%=      5-min Rain = 0
KHRS 142220Z 36016KT 02/M00 A3012 RMK A01 T00201001  RH  087%=      5-min Rain = 0
KHRS 142225Z 00015G20KT 02/M00 A3012 RMK A01 T00211001  RH  086%=      5-min Rain = 0
KHRS 142230Z 00016G21KT 02/M00 A3012 RMK A01 T00221002  RH  085%=      5-min Rain = 0
KHRS 142235Z 00017KT 02/M00 A3012 RMK A01 T00221002  RH  085%=      5-min Rain = 0
KHRS 142240Z 36016KT 02/00 A3012 RMK A01 T00230000  RH  086%=      5-min Rain = 0
KHRS 142245Z 35017KT 02/M00 A3012 RMK A01 T00231001  RH  085%=      5-min Rain = 0
KHRS 142250Z 35019G24KT 02/M00 A3012 RMK A01 T00231003  RH  084%=      5-min Rain = 0
KHRS 142255Z 00018KT 02/M00 A3012 RMK A01 T00231002  RH  084%=      5-min Rain = 0
KHRS 142300Z 00017KT 02/M00 A3012 RMK A01 T00231002  RH  084%=      5-min Rain = 0
KHRS 142305Z 36016KT 02/M00 A3012 RMK A01 T00241001  RH  085%=      5-min Rain = 0
KHRS 142310Z 36017KT 02/M00 A3012 RMK A01 T00231003  RH  084%=      5-min Rain = 0
KHRS 142315Z 36016KT 02/M00 A3012 RMK A01 T00241002  RH  084%=      5-min Rain = 0
KHRS 142320Z 36016G21KT 02/M00 A3012 RMK A01 T00241003  RH  084%=      5-min Rain = 0
KHRS 142325Z 35015KT 02/M00 A3012 RMK A01 T00241001  RH  084%=      5-min Rain = 0
KHRS 142330Z 35014KT 02/M00 A3013 RMK A01 T00241003  RH  083%=      5-min Rain = 0
KHRS 142335Z 34012KT 02/M00 A3013 RMK A01 T00241004  RH  083%=      5-min Rain = 0
KHRS 142340Z 34013G18KT 02/M01 A3013 RMK A01 T00241006  RH  081%=      5-min Rain = 0
KHRS 142345Z 34013KT 02/M01 A3013 RMK A01 T00241009  RH  080%=      5-min Rain = 0
KHRS 142350Z 34012KT 02/M01 A3013 RMK A01 T00241007  RH  081%=      5-min Rain = 0
KHRS 142355Z 35012KT 02/M01 A3013 RMK A01 T00241007  RH  081%=      5-min Rain = 0
KHRS 150000Z 35012G17KT 02/M01 A3013 RMK A01 T00241006  RH  082%=      5-min Rain = 0
KHRS 150005Z 35012KT 03/M00 A3013 RMK A01 T00251004  RH  082%=      5-min Rain = 0
KHRS 150010Z 35011KT 03/M00 A3013 RMK A01 T00251003  RH  083%=      5-min Rain = 0
KHRS 150015Z 35010KT 03/M00 A3013 RMK A01 T00251003  RH  083%=      5-min Rain = 0
KHRS 150020Z 34009KT 03/M00 A3014 RMK A01 T00251002  RH  083%=      5-min Rain = 0
KHRS 150025Z 34008KT 03/M00 A3014 RMK A01 T00251002  RH  084%=      5-min Rain = 0
KHRS 150030Z 34007KT 02/M00 A3014 RMK A01 T00241001  RH  084%=      5-min Rain = 0
KHRS 150035Z 33006KT 02/00 A3014 RMK A01 T00240000  RH  085%=      5-min Rain = 0
KHRS 150040Z 34007KT 02/00 A3015 RMK A01 T00240001  RH  086%=      5-min Rain = 0
KHRS 150045Z 34007KT 02/00 A3015 RMK A01 T00230000  RH  086%=      5-min Rain = 0
KHRS 150050Z 33007KT 02/00 A3015 RMK A01 T00230001  RH  086%=      5-min Rain = 0
KHRS 150055Z 33006KT 02/00 A3015 RMK A01 T00230002  RH  087%=      5-min Rain = 0
KHRS 150100Z 32006KT 02/00 A3015 RMK A01 T00220002  RH  088%=      5-min Rain = 0
KHRS 150105Z 32005KT 02/00 A3015 RMK A01 T00220002  RH  088%=      5-min Rain = 0
KHRS 150110Z 32005KT 02/00 A3015 RMK A01 T00220003  RH  088%=      5-min Rain = 0
KHRS 150115Z 32005KT 02/00 A3015 RMK A01 T00220002  RH  088%=      5-min Rain = 0
KHRS 150120Z 32005KT 02/00 A3015 RMK A01 T00220002  RH  088%=      5-min Rain = 0
KHRS 150125Z 32004KT 02/00 A3016 RMK A01 T00210002  RH  088%=      5-min Rain = 0
KHRS 150130Z 32004KT 02/00 A3016 RMK A01 T00210003  RH  088%=      5-min Rain = 0
KHRS 150135Z 32004KT 02/00 A3016 RMK A01 T00210003  RH  089%=      5-min Rain = 0
KHRS 150140Z 31005KT 02/00 A3016 RMK A01 T00210004  RH  089%=      5-min Rain = 0
KHRS 150145Z 30004KT 02/00 A3016 RMK A01 T00210003  RH  089%=      5-min Rain = 0
KHRS 150150Z 30004KT 02/00 A3016 RMK A01 T00210003  RH  089%=      5-min Rain = 0
KHRS 150155Z 30004KT 02/00 A3016 RMK A01 T00200002  RH  089%=      5-min Rain = 0
KHRS 150200Z 30004KT 02/00 A3016 RMK A01 T00200002  RH  089%=      5-min Rain = 0
KHRS 150205Z 30004KT 02/00 A3016 RMK A01 T00200001  RH  089%=      5-min Rain = 0
KHRS 150210Z 30004KT 02/00 A3016 RMK A01 T00190000  RH  088%=      5-min Rain = 0
KHRS 150215Z 29004KT 02/00 A3016 RMK A01 T00190000  RH  088%=      5-min Rain = 0
KHRS 150220Z 29004KT 02/00 A3017 RMK A01 T00190000  RH  089%=      5-min Rain = 0
KHRS 150225Z 29003KT 02/00 A3017 RMK A01 T00180001  RH  089%=      5-min Rain = 0
KHRS 150230Z 28003KT 02/00 A3017 RMK A01 T00180000  RH  089%=      5-min Rain = 0
KHRS 150235Z 28004KT 02/00 A3017 RMK A01 T00170000  RH  089%=      5-min Rain = 0
KHRS 150240Z 28004KT 02/00 A3017 RMK A01 T001700-0  RH  090%=      5-min Rain = 0
KHRS 150245Z 28004KT 02/M00 A3017 RMK A01 T00161001  RH  090%=      5-min Rain = 0
KHRS 150250Z 28005KT 01/M00 A3017 RMK A01 T00141002  RH  090%=      5-min Rain = 0
KHRS 150255Z 27005KT 01/M00 A3017 RMK A01 T00121003  RH  091%=      5-min Rain = 0
KHRS 150300Z 27006KT 01/M01 A3018 RMK A01 T00091005  RH  092%=      5-min Rain = 0
KHRS 150305Z 27007KT 01/M01 A3018 RMK A01 T00061007  RH  092%=      5-min Rain = 0
KHRS 150310Z 28007KT 01/M01 A3018 RMK A01 T00051008  RH  092%=      5-min Rain = 0
KHRS 150315Z 28008KT 01/M01 A3018 RMK A01 T00061007  RH  092%=      5-min Rain = 0
KHRS 150320Z 28008KT 01/M01 A3018 RMK A01 T00071009  RH  090%=      5-min Rain = 0
KHRS 150325Z 28008KT 01/M01 A3018 RMK A01 T00051011  RH  090%=      5-min Rain = 0
KHRS 150330Z 27008KT 00/M01 A3018 RMK A01 T00041012  RH  090%=      5-min Rain = 0
KHRS 150335Z 27007KT 00/M01 A3018 RMK A01 T00031013  RH  090%=      5-min Rain = 0
KHRS 150340Z 27007KT 00/M01 A3018 RMK A01 T00011013  RH  091%=      5-min Rain = 0
KHRS 150345Z 27008KT 00/M01 A3019 RMK A01 T00011013  RH  091%=      5-min Rain = 0
KHRS 150350Z 27008KT 00/M01 A3019 RMK A01 T00011013  RH  092%=      5-min Rain = 0
KHRS 150355Z 27008KT 00/M01 A3019 RMK A01 T00011013  RH  092%=      5-min Rain = 0
KHRS 150400Z 27008KT 00/M01 A3019 RMK A01 T00011013  RH  092%=      5-min Rain = 0
KHRS 150405Z 27009KT 00/01 A3019 RMK A01 T00-00-13  RH  092%=      5-min Rain = 0
KHRS 150410Z 27008KT 00/01 A3019 RMK A01 T00-00-13  RH  092%=      5-min Rain = 0
KHRS 150415Z 27008KT M00/M01 A3019 RMK A01 T10011014  RH  092%=      5-min Rain = 0
KHRS 150420Z 28007KT M00/M01 A3019 RMK A01 T10011014  RH  092%=      5-min Rain = 0
KHRS 150425Z 28007KT M00/M01 A3019 RMK A01 T10011014  RH  092%=      5-min Rain = 0
KHRS 150430Z 28008KT M00/M01 A302 RMK A01 T10021014  RH  092%=      5-min Rain = 0
KHRS 150435Z 28008KT M00/M01 A302 RMK A01 T10021014  RH  092%=      5-min Rain = 0
KHRS 150440Z 28008KT M00/M02 A302 RMK A01 T10021015  RH  092%=      5-min Rain = 0
KHRS 150445Z 29007KT M00/M02 A3019 RMK A01 T10031015  RH  093%=      5-min Rain = 0
KHRS 150450Z 29007KT M00/M02 A3019 RMK A01 T10031015  RH  093%=      5-min Rain = 0
KHRS 150455Z 29007KT M00/M02 A3019 RMK A01 T10031015  RH  092%=      5-min Rain = 0
KHRS 150500Z 29007KT M00/M02 A3019 RMK A01 T10031015  RH  092%=      5-min Rain = 0
KHRS 150505Z 29008KT M00/M02 A3019 RMK A01 T10021015  RH  092%=      5-min Rain = 0
KHRS 150510Z 29008KT M00/M02 A3019 RMK A01 T10011015  RH  091%=      5-min Rain = 0
KHRS 150515Z 29007KT M00/M02 A3019 RMK A01 T10011016  RH  091%=      5-min Rain = 0
KHRS 150520Z 29007KT M00/M02 A3019 RMK A01 T10011016  RH  090%=      5-min Rain = 0
KHRS 150525Z 29007KT M00/M02 A3019 RMK A01 T10021017  RH  090%=      5-min Rain = 0
KHRS 150530Z 30007KT M00/M02 A3019 RMK A01 T10021018  RH  090%=      5-min Rain = 0
KHRS 150535Z 30008KT M00/M02 A3019 RMK A01 T10021018  RH  090%=      5-min Rain = 0
KHRS 150540Z 30007KT M00/M02 A3019 RMK A01 T10021018  RH  090%=      5-min Rain = 0
KHRS 150545Z 30007KT M00/M02 A3019 RMK A01 T10021019  RH  089%=      5-min Rain = 0
KHRS 150550Z 31007KT M00/M02 A3019 RMK A01 T10031020  RH  089%=      5-min Rain = 0
KHRS 150555Z 31007KT M00/M02 A3019 RMK A01 T10021020  RH  089%=      5-min Rain = 0

Page generated in 0.0136 seconds.